Time;durP1;ratioP1;P1;durP2;ratioP2;P2;SDS_P1;SDS_P2;PMS_P1;PMS_P2;Temp;Humidity;BMP_temperature;BMP_pressure;BME280_temperature;BME280_humidity;BME280_pressure;Samples;Min_cycle;Max_cycle;Signal;HPM_P1;HPM_P2
2022/05/29 00:01:25;;;;;;;10.70;2.20;;;10.50;99.90;;;;;;5054579;28;20978;-80
2022/05/29 00:03:51;;;;;;;9.97;2.57;;;10.50;99.90;;;;;;5036543;28;20191;-72
2022/05/29 00:06:16;;;;;;;5.40;1.90;;;10.50;99.90;;;;;;5057137;28;20225;-76
2022/05/29 00:08:44;;;;;;;9.33;2.60;;;10.50;99.90;;;;;;5045434;28;20198;-76
2022/05/29 00:11:13;;;;;;;5.30;2.03;;;10.60;99.90;;;;;;5047985;28;20221;-82
2022/05/29 00:13:39;;;;;;;6.73;2.43;;;10.50;99.90;;;;;;5035789;28;20285;-81
2022/05/29 00:16:04;;;;;;;7.70;1.77;;;10.50;99.90;;;;;;5054248;28;20223;-72
2022/05/29 00:18:30;;;;;;;4.23;2.27;;;10.60;99.90;;;;;;5033221;28;20193;-73
2022/05/29 00:20:58;;;;;;;8.03;2.27;;;10.60;99.90;;;;;;5055615;28;20206;-82
2022/05/29 00:23:26;;;;;;;6.53;2.33;;;10.60;99.90;;;;;;5048339;28;20654;-85
2022/05/29 00:25:52;;;;;;;5.73;1.90;;;10.70;99.90;;;;;;5059858;28;20199;-82
2022/05/29 00:28:19;;;;;;;8.40;3.20;;;10.70;99.90;;;;;;5053180;28;20285;-79
2022/05/29 00:30:45;;;;;;;6.50;2.90;;;10.80;99.90;;;;;;5059294;28;20235;-83
2022/05/29 00:33:11;;;;;;;5.37;1.93;;;10.80;99.90;;;;;;5034562;28;20288;-83
2022/05/29 00:35:39;;;;;;;5.37;2.30;;;10.80;99.90;;;;;;5053142;28;20220;-82
2022/05/29 00:38:05;;;;;;;6.13;2.43;;;10.70;99.90;;;;;;5037138;28;20241;-81
2022/05/29 00:40:41;;;;;;;7.80;2.33;;;10.70;99.90;;;;;;5067052;28;20302;-81
2022/05/29 00:43:07;;;;;;;4.60;2.30;;;10.70;99.90;;;;;;5032482;28;20208;-82
2022/05/29 00:45:42;;;;;;;6.73;2.07;;;10.70;99.90;;;;;;5066888;28;20874;-76
2022/05/29 00:48:09;;;;;;;6.83;2.17;;;10.70;99.90;;;;;;5032502;28;20301;-74
2022/05/29 00:50:34;;;;;;;4.27;1.77;;;10.70;99.90;;;;;;5049023;28;20953;-75
2022/05/29 00:53:00;;;;;;;4.93;1.90;;;10.80;99.90;;;;;;5046272;28;20207;-74
2022/05/29 00:55:29;;;;;;;3.63;1.77;;;10.80;99.90;;;;;;5049435;28;20571;-75
2022/05/29 00:58:01;;;;;;;6.53;2.60;;;10.80;99.90;;;;;;5048270;28;20965;-74
2022/05/29 01:00:29;;;;;;;7.40;2.90;;;10.70;99.90;;;;;;5036489;28;20727;-76
2022/05/29 01:02:57;;;;;;;4.60;1.77;;;10.70;99.90;;;;;;5038703;28;20644;-74
2022/05/29 01:05:25;;;;;;;7.70;1.77;;;10.60;99.90;;;;;;5065615;28;20664;-75
2022/05/29 01:08:18;;;;;;;4.63;2.17;;;10.60;99.90;;;;;;5047645;28;20346;-74
2022/05/29 01:10:49;;;;;;;3.83;1.83;;;10.60;99.90;;;;;;5039359;28;20685;-76
2022/05/29 01:13:37;;;;;;;5.00;2.10;;;10.60;99.90;;;;;;5026981;28;20203;-76
2022/05/29 01:16:18;;;;;;;7.23;1.90;;;10.50;99.90;;;;;;5057264;28;20266;-76
2022/05/29 01:19:09;;;;;;;7.67;1.83;;;10.50;99.90;;;;;;5033457;28;20184;-75
2022/05/29 01:22:03;;;;;;;5.80;2.17;;;10.50;99.90;;;;;;5039120;28;20199;-75
2022/05/29 01:24:57;;;;;;;5.17;2.10;;;10.60;99.90;;;;;;5037131;28;20197;-75
2022/05/29 01:27:52;;;;;;;4.83;1.47;;;10.60;99.90;;;;;;5025030;28;20205;-75
2022/05/29 01:30:21;;;;;;;4.40;2.03;;;10.60;99.90;;;;;;5034093;28;20194;-75
2022/05/29 01:33:17;;;;;;;7.50;1.97;;;10.50;99.90;;;;;;5035745;28;20203;-81
2022/05/29 01:35:52;;;;;;;3.10;1.57;;;10.50;99.90;;;;;;5026207;28;20255;-81
2022/05/29 01:39:00;;;;;;;7.73;2.10;;;10.50;99.90;;;;;;5035928;28;20185;-81
2022/05/29 01:41:38;;;;;;;6.97;1.80;;;10.40;99.90;;;;;;5031582;28;20204;-80
2022/05/29 01:44:17;;;;;;;4.00;1.97;;;10.40;99.90;;;;;;5038470;28;20191;-80
2022/05/29 01:46:45;;;;;;;3.27;1.70;;;10.50;99.90;;;;;;5048551;28;20674;-78
2022/05/29 01:49:33;;;;;;;7.70;1.97;;;10.50;99.90;;;;;;5051885;28;20188;-80
2022/05/29 01:52:09;;;;;;;3.33;1.33;;;10.50;99.90;;;;;;5025373;28;20218;-79
2022/05/29 01:55:04;;;;;;;6.20;1.60;;;10.60;99.90;;;;;;5034926;28;20236;-80
2022/05/29 01:57:34;;;;;;;2.03;1.80;;;10.60;99.90;;;;;;5036704;28;20408;-80
2022/05/29 02:00:13;;;;;;;8.17;2.13;;;10.70;99.90;;;;;;5052320;28;20571;-80
2022/05/29 02:03:11;;;;;;;4.43;2.17;;;10.60;99.90;;;;;;5034188;28;20233;-78
2022/05/29 02:05:44;;;;;;;4.67;2.00;;;10.70;99.90;;;;;;5045251;28;20200;-80
2022/05/29 02:08:14;;;;;;;3.90;1.53;;;10.60;99.90;;;;;;5042298;28;20294;-80
2022/05/29 02:10:53;;;;;;;4.87;2.20;;;10.40;99.90;;;;;;5044588;28;20785;-79
2022/05/29 02:13:54;;;;;;;7.57;2.03;;;10.40;99.90;;;;;;5027060;28;20198;-81
2022/05/29 02:16:54;;;;;;;5.40;2.50;;;10.50;99.90;;;;;;5032102;28;20233;-80
2022/05/29 02:19:28;;;;;;;7.20;1.93;;;10.50;99.90;;;;;;5026381;28;20176;-80
2022/05/29 02:22:05;;;;;;;5.20;1.97;;;10.50;99.90;;;;;;5037060;28;20288;-80
2022/05/29 02:24:35;;;;;;;2.80;2.00;;;10.50;99.90;;;;;;5037959;28;20203;-77
2022/05/29 02:27:11;;;;;;;4.73;1.30;;;10.50;99.90;;;;;;5036639;28;20266;-78
2022/05/29 02:29:37;;;;;;;3.97;1.53;;;10.40;99.90;;;;;;5036502;28;20199;-79
2022/05/29 02:32:17;;;;;;;8.40;2.27;;;10.40;99.90;;;;;;5039714;28;20729;-80
2022/05/29 02:35:00;;;;;;;4.13;1.97;;;10.50;99.90;;;;;;5033574;28;20199;-74
2022/05/29 02:37:48;;;;;;;8.17;2.07;;;10.40;99.90;;;;;;5037130;28;20203;-75
2022/05/29 02:40:44;;;;;;;3.67;1.90;;;10.50;99.90;;;;;;5048676;28;20195;-75
2022/05/29 02:43:37;;;;;;;5.00;1.77;;;10.40;99.90;;;;;;5033375;28;20213;-76
2022/05/29 02:46:31;;;;;;;2.73;2.00;;;10.20;99.90;;;;;;5054430;28;20214;-74
2022/05/29 02:49:22;;;;;;;8.83;2.53;;;10.30;99.90;;;;;;5045763;28;20263;-75
2022/05/29 02:51:55;;;;;;;2.70;1.60;;;10.30;99.90;;;;;;5028632;28;20169;-74
2022/05/29 02:54:25;;;;;;;8.20;2.40;;;10.30;99.90;;;;;;5052906;28;20242;-74
2022/05/29 02:56:54;;;;;;;5.27;1.77;;;10.20;99.90;;;;;;5031703;28;20220;-75
2022/05/29 02:59:23;;;;;;;4.40;1.87;;;10.30;99.90;;;;;;5041666;28;20264;-75
2022/05/29 03:02:02;;;;;;;2.43;1.90;;;10.40;99.90;;;;;;5054468;28;20191;-75
2022/05/29 03:04:57;;;;;;;2.40;1.63;;;10.40;99.90;;;;;;5029723;28;20629;-75
2022/05/29 03:07:50;;;;;;;8.47;2.40;;;10.30;99.90;;;;;;5028216;28;20601;-75
2022/05/29 03:10:23;;;;;;;3.70;1.90;;;10.30;99.90;;;;;;5046104;28;20269;-74
2022/05/29 03:12:54;;;;;;;3.87;1.60;;;10.30;99.90;;;;;;5049026;28;20206;-74
2022/05/29 03:15:57;;;;;;;5.70;2.33;;;10.40;99.90;;;;;;5045315;28;20213;-75
2022/05/29 03:18:52;;;;;;;3.37;2.23;;;10.30;99.90;;;;;;5027669;28;20234;-74
2022/05/29 03:21:27;;;;;;;5.70;2.07;;;10.30;99.90;;;;;;5032797;28;20188;-74
2022/05/29 03:24:32;;;;;;;7.17;3.30;;;10.30;99.90;;;;;;5037210;28;20257;-75
2022/05/29 03:27:12;;;;;;;4.20;2.10;;;10.20;99.90;;;;;;5047637;28;20196;-79
2022/05/29 03:29:50;;;;;;;7.27;2.20;;;10.20;99.90;;;;;;5041174;28;20234;-79
2022/05/29 03:32:16;;;;;;;4.63;2.33;;;10.20;99.90;;;;;;5035572;28;20211;-80
2022/05/29 03:34:42;;;;;;;3.87;2.20;;;10.20;99.90;;;;;;5040539;28;20204;-71
2022/05/29 03:37:07;;;;;;;6.07;2.40;;;10.30;99.90;;;;;;5055418;28;20329;-79
2022/05/29 03:39:34;;;;;;;5.70;2.03;;;10.30;99.90;;;;;;5039492;28;20182;-74
2022/05/29 03:41:59;;;;;;;3.23;1.80;;;10.30;99.90;;;;;;5057375;28;20199;-77
2022/05/29 03:44:25;;;;;;;7.00;2.30;;;10.40;99.90;;;;;;5040296;28;20184;-75
2022/05/29 03:46:51;;;;;;;4.57;2.20;;;10.40;99.90;;;;;;5045916;28;20208;-73
2022/05/29 03:49:19;;;;;;;5.37;1.80;;;10.40;99.90;;;;;;5040714;28;20191;-73
2022/05/29 03:51:45;;;;;;;3.00;1.97;;;10.50;99.90;;;;;;5058204;28;20242;-73
2022/05/29 03:54:11;;;;;;;9.63;3.00;;;10.60;99.90;;;;;;5058104;28;20267;-73
2022/05/29 03:56:37;;;;;;;7.83;2.37;;;10.50;99.90;;;;;;5047584;28;20325;-73
2022/05/29 03:59:03;;;;;;;6.43;2.30;;;10.50;99.90;;;;;;5027856;28;20457;-74
2022/05/29 04:01:30;;;;;;;4.80;2.63;;;10.60;99.90;;;;;;5053117;28;20267;-75
2022/05/29 04:03:55;;;;;;;4.03;2.53;;;10.50;99.90;;;;;;5042170;28;20662;-75
2022/05/29 04:06:22;;;;;;;4.37;2.20;;;10.60;99.90;;;;;;5060877;28;20264;-75
2022/05/29 04:14:20;;;;;;;8.23;2.73;;;10.60;99.90;;;;;;5039934;28;20229;-75
2022/05/29 04:16:45;;;;;;;6.83;2.37;;;10.60;99.90;;;;;;5057706;28;20646;-75
2022/05/29 04:19:11;;;;;;;4.87;2.20;;;10.60;99.90;;;;;;5041267;28;20284;-76
2022/05/29 04:21:36;;;;;;;2.57;2.17;;;10.60;99.90;;;;;;5067360;28;20188;-76
2022/05/29 04:24:02;;;;;;;3.37;2.10;;;10.70;99.90;;;;;;5037640;28;20223;-75
2022/05/29 04:26:28;;;;;;;5.33;2.40;;;10.60;99.90;;;;;;5054165;28;20283;-75
2022/05/29 04:28:54;;;;;;;7.20;2.80;;;10.70;99.90;;;;;;5036333;28;20313;-73
2022/05/29 04:31:19;;;;;;;3.10;1.70;;;10.70;99.90;;;;;;5035891;28;20215;-73
2022/05/29 04:33:45;;;;;;;8.20;1.97;;;10.80;99.90;;;;;;5042129;28;20194;-72
2022/05/29 04:36:11;;;;;;;7.33;2.60;;;10.80;99.90;;;;;;5037118;28;20204;-74
2022/05/29 04:38:37;;;;;;;5.33;2.43;;;10.80;99.90;;;;;;5051981;28;20734;-73
2022/05/29 04:41:08;;;;;;;5.63;2.70;;;10.70;99.90;;;;;;5034775;28;20680;-76
2022/05/29 04:43:34;;;;;;;5.03;1.87;;;10.80;99.90;;;;;;5030911;28;20948;-76
2022/05/29 04:46:00;;;;;;;5.87;1.97;;;10.90;99.90;;;;;;5053910;28;20232;-76
2022/05/29 04:48:25;;;;;;;3.33;1.97;;;10.90;99.90;;;;;;5040242;28;20199;-76
2022/05/29 04:51:02;;;;;;;7.13;2.50;;;10.90;99.90;;;;;;5059999;28;20200;-76
2022/05/29 04:53:29;;;;;;;3.53;2.00;;;10.90;99.90;;;;;;5034377;28;20305;-76
2022/05/29 04:55:56;;;;;;;8.77;2.47;;;10.90;99.90;;;;;;5040433;28;20308;-76
2022/05/29 04:58:24;;;;;;;6.27;2.27;;;10.90;99.90;;;;;;5038451;28;20239;-76
2022/05/29 05:00:54;;;;;;;6.57;2.13;;;11.00;99.90;;;;;;5055435;28;20202;-73
2022/05/29 05:03:19;;;;;;;5.20;2.43;;;11.10;99.90;;;;;;5043000;28;20879;-74
2022/05/29 05:05:46;;;;;;;5.40;2.60;;;11.10;99.90;;;;;;5056767;28;20206;-74
2022/05/29 05:08:12;;;;;;;8.87;2.20;;;11.10;99.90;;;;;;5037663;28;20188;-75
2022/05/29 05:10:40;;;;;;;6.73;2.63;;;11.20;99.90;;;;;;5045972;28;20203;-76
2022/05/29 05:13:05;;;;;;;5.70;2.53;;;11.20;99.90;;;;;;5036875;28;20195;-75
2022/05/29 05:15:31;;;;;;;7.33;2.30;;;11.20;99.90;;;;;;5038256;28;20207;-75
2022/05/29 05:17:56;;;;;;;7.63;2.17;;;11.30;99.90;;;;;;5034946;28;20689;-77
2022/05/29 05:20:22;;;;;;;5.80;1.97;;;11.30;99.90;;;;;;5056503;28;20187;-78
2022/05/29 05:22:47;;;;;;;4.83;2.10;;;11.30;99.90;;;;;;5039510;28;20268;-78
2022/05/29 05:25:14;;;;;;;5.53;1.97;;;11.30;99.90;;;;;;5054302;28;20254;-79
2022/05/29 05:27:39;;;;;;;4.93;2.13;;;11.40;99.90;;;;;;5032882;28;20675;-80
2022/05/29 05:30:05;;;;;;;4.03;2.23;;;11.30;99.90;;;;;;5066749;28;20252;-80
2022/05/29 05:32:32;;;;;;;3.87;2.40;;;11.40;99.90;;;;;;5036858;28;20210;-80
2022/05/29 05:35:02;;;;;;;4.47;2.37;;;11.40;99.90;;;;;;5042596;28;20193;-80
2022/05/29 05:37:28;;;;;;;6.07;2.23;;;11.40;99.90;;;;;;5037829;28;20356;-81
2022/05/29 05:39:53;;;;;;;4.83;2.37;;;11.40;99.90;;;;;;5057097;28;20221;-81
2022/05/29 05:42:19;;;;;;;7.73;2.30;;;11.50;99.90;;;;;;5039075;28;20611;-80
2022/05/29 05:44:44;;;;;;;8.03;3.07;;;11.50;99.90;;;;;;5058110;28;20200;-78
2022/05/29 05:47:10;;;;;;;5.83;2.63;;;11.60;99.90;;;;;;5039132;28;20223;-78
2022/05/29 05:49:36;;;;;;;5.67;2.80;;;11.70;99.90;;;;;;5055989;28;20197;-79
2022/05/29 05:52:02;;;;;;;6.10;2.90;;;11.70;99.90;;;;;;5036198;28;20211;-78
2022/05/29 05:54:30;;;;;;;7.50;2.60;;;11.70;99.90;;;;;;5049955;28;20249;-78
2022/05/29 05:56:56;;;;;;;6.60;2.70;;;11.70;99.90;;;;;;5036367;28;20781;-79
2022/05/29 05:59:21;;;;;;;6.53;3.20;;;11.80;99.90;;;;;;5061898;28;20190;-79
2022/05/29 06:01:47;;;;;;;7.00;2.80;;;11.90;99.90;;;;;;5046680;28;20195;-78
2022/05/29 06:04:13;;;;;;;4.10;2.20;;;12.10;99.90;;;;;;5062966;28;20183;-79
2022/05/29 06:06:38;;;;;;;7.33;2.50;;;12.00;99.90;;;;;;5043532;28;20207;-78
2022/05/29 06:09:04;;;;;;;2.60;2.17;;;12.10;99.90;;;;;;5041567;28;20208;-79
2022/05/29 06:11:30;;;;;;;4.33;3.13;;;12.10;99.90;;;;;;5045793;28;20802;-80
2022/05/29 06:13:56;;;;;;;5.33;2.50;;;12.10;99.90;;;;;;5050665;28;20199;-79
2022/05/29 06:16:22;;;;;;;9.53;3.73;;;12.10;99.90;;;;;;5046534;28;20232;-79
2022/05/29 06:18:48;;;;;;;5.77;2.73;;;12.20;99.90;;;;;;5054600;28;20305;-81
2022/05/29 06:21:14;;;;;;;5.80;3.00;;;12.20;99.90;;;;;;5050666;28;20210;-79
2022/05/29 06:23:40;;;;;;;5.90;2.90;;;12.10;99.90;;;;;;5027130;28;20353;-77
2022/05/29 06:26:08;;;;;;;5.20;2.70;;;12.20;99.90;;;;;;5047389;28;20211;-79
2022/05/29 06:28:34;;;;;;;8.03;2.80;;;12.30;99.90;;;;;;5026344;28;20185;-78
2022/05/29 06:31:01;;;;;;;4.40;2.67;;;12.30;99.90;;;;;;5047562;28;20672;-78
2022/05/29 06:33:29;;;;;;;5.60;3.63;;;12.30;99.90;;;;;;5033482;28;20190;-77
2022/05/29 06:36:04;;;;;;;5.57;2.17;;;12.30;99.90;;;;;;5050697;28;20221;-77
2022/05/29 06:38:30;;;;;;;5.63;2.53;;;12.50;99.90;;;;;;5036819;28;20197;-72
2022/05/29 06:40:55;;;;;;;4.47;2.27;;;12.50;99.90;;;;;;5041264;28;21117;-72
2022/05/29 06:43:21;;;;;;;4.33;2.30;;;12.50;99.90;;;;;;5036190;28;20558;-72
2022/05/29 06:45:47;;;;;;;4.40;2.33;;;12.50;99.90;;;;;;5031734;28;20209;-80
2022/05/29 06:48:12;;;;;;;7.87;2.77;;;12.60;99.90;;;;;;5031426;28;20213;-80
2022/05/29 06:50:38;;;;;;;5.53;2.33;;;12.70;99.90;;;;;;5045110;28;20190;-81
2022/05/29 06:53:03;;;;;;;6.90;3.33;;;12.60;99.90;;;;;;5030882;28;20179;-77
2022/05/29 06:55:29;;;;;;;3.80;1.90;;;12.60;99.90;;;;;;5035244;28;20302;-80
2022/05/29 06:57:54;;;;;;;9.10;2.30;;;12.70;99.90;;;;;;5034599;28;20182;-78
2022/05/29 07:08:40;;;;;;;7.73;2.37;;;12.90;99.90;;;;;;5037321;28;20184;-80
2022/05/29 07:11:10;;;;;;;5.13;2.80;;;12.90;99.90;;;;;;5034373;28;20202;-78
2022/05/29 07:13:36;;;;;;;5.80;2.93;;;12.90;99.90;;;;;;5035949;28;20183;-81
2022/05/29 07:16:02;;;;;;;5.97;2.63;;;12.90;99.90;;;;;;5036130;28;20210;-81
2022/05/29 07:18:29;;;;;;;7.20;2.60;;;12.90;99.90;;;;;;5034822;28;20575;-81
2022/05/29 07:20:57;;;;;;;8.70;3.33;;;13.00;99.90;;;;;;5034196;28;20206;-80
2022/05/29 07:23:23;;;;;;;4.57;2.37;;;13.10;99.90;;;;;;5036269;28;20190;-81
2022/05/29 07:25:48;;;;;;;4.43;2.40;;;13.20;99.90;;;;;;5035249;28;20207;-77
2022/05/29 07:28:14;;;;;;;2.63;1.90;;;13.30;99.90;;;;;;5035912;28;20665;-78
2022/05/29 07:30:40;;;;;;;5.60;1.80;;;13.30;99.90;;;;;;5039951;28;20556;-75
2022/05/29 07:33:05;;;;;;;7.70;2.07;;;13.20;99.90;;;;;;5038900;28;20618;-79
2022/05/29 07:35:31;;;;;;;5.37;2.07;;;13.40;99.90;;;;;;5037162;28;20341;-74
2022/05/29 07:37:56;;;;;;;6.23;1.83;;;13.50;99.90;;;;;;5038816;28;20262;-74
2022/05/29 07:40:23;;;;;;;5.23;2.03;;;13.50;99.90;;;;;;5038527;28;20187;-76
2022/05/29 07:45:33;;;;;;;4.57;2.10;;;13.40;99.90;;;;;;5039901;28;20196;-77
2022/05/29 07:47:59;;;;;;;9.57;2.23;;;13.20;99.90;;;;;;5037225;28;20213;-76
2022/05/29 07:50:25;;;;;;;8.00;2.17;;;13.00;99.90;;;;;;5043171;28;20230;-76
2022/05/29 07:52:52;;;;;;;5.87;2.30;;;12.90;99.90;;;;;;5033144;28;20179;-68
2022/05/29 07:55:18;;;;;;;4.47;2.33;;;13.00;99.90;;;;;;5059367;28;20202;-69
2022/05/29 07:57:45;;;;;;;5.93;2.33;;;13.00;99.90;;;;;;5030846;28;20203;-70
2022/05/29 08:00:13;;;;;;;2.20;1.83;;;13.00;99.90;;;;;;5044568;28;20742;-71
2022/05/29 08:02:38;;;;;;;4.60;2.23;;;12.80;99.90;;;;;;5030418;28;20273;-73
2022/05/29 08:05:06;;;;;;;3.80;2.10;;;12.90;99.90;;;;;;5052731;28;20839;-72
2022/05/29 08:07:32;;;;;;;2.63;2.07;;;12.90;99.90;;;;;;5031573;28;20293;-70
2022/05/29 08:09:57;;;;;;;4.97;2.00;;;13.00;99.90;;;;;;5043592;28;20289;-69
2022/05/29 08:12:23;;;;;;;5.50;2.43;;;13.10;99.90;;;;;;5040629;28;20853;-70
2022/05/29 08:14:51;;;;;;;5.23;2.37;;;13.10;99.90;;;;;;5040617;28;20195;-70
2022/05/29 08:17:17;;;;;;;4.50;2.40;;;13.30;99.90;;;;;;5039899;28;20245;-71
2022/05/29 08:19:42;;;;;;;5.87;2.43;;;13.40;99.90;;;;;;5035750;28;20225;-72
2022/05/29 08:22:08;;;;;;;5.57;2.40;;;13.40;99.90;;;;;;5041738;28;20220;-71
2022/05/29 08:30:37;;;;;;;277.90;254.40;;;14.10;99.90;;;;;;5029985;28;20305;-70
2022/05/29 08:33:05;;;;;;;24.23;16.73;;;14.20;99.90;;;;;;5040506;28;20285;-70
2022/05/29 08:35:34;;;;;;;66.63;47.23;;;14.20;99.90;;;;;;5051459;28;20229;-72
2022/05/29 08:38:01;;;;;;;29.43;23.47;;;14.30;99.90;;;;;;5035644;28;20175;-72
2022/05/29 08:40:29;;;;;;;39.07;17.87;;;14.50;99.90;;;;;;5035705;28;20638;-70
2022/05/29 08:42:56;;;;;;;53.00;49.07;;;14.60;99.90;;;;;;5035771;28;20551;-69
2022/05/29 08:45:21;;;;;;;16.83;6.50;;;15.00;99.90;;;;;;5036525;28;20302;-69
2022/05/29 08:47:49;;;;;;;46.27;43.00;;;15.20;99.90;;;;;;5037687;28;20290;-69
2022/05/29 08:50:32;;;;;;;16.90;11.93;;;15.20;99.90;;;;;;5040131;28;20187;-69
2022/05/29 08:53:03;;;;;;;8.37;5.17;;;14.90;99.90;;;;;;5036025;28;20785;-71
2022/05/29 08:55:51;;;;;;;44.03;25.37;;;14.80;99.90;;;;;;5034258;28;20679;-72
2022/05/29 08:58:27;;;;;;;71.17;65.00;;;14.80;99.90;;;;;;5035627;28;20235;-71
2022/05/29 09:01:17;;;;;;;89.23;81.03;;;14.50;99.60;;;;;;5034246;28;20203;-72
2022/05/29 09:03:53;;;;;;;258.93;239.17;;;14.30;99.90;;;;;;5033510;28;20186;-72
2022/05/29 09:06:43;;;;;;;47.40;43.60;;;13.70;99.90;;;;;;5036125;28;20623;-72
2022/05/29 09:09:21;;;;;;;134.20;122.97;;;13.20;99.90;;;;;;5035872;28;20202;-72
2022/05/29 09:11:54;;;;;;;259.90;239.17;;;13.00;99.90;;;;;;5037160;28;20231;-72
2022/05/29 09:14:49;;;;;;;22.93;12.37;;;13.00;99.90;;;;;;5050038;28;20205;-72
2022/05/29 09:17:32;;;;;;;12.63;7.53;;;13.10;99.90;;;;;;5040982;28;20219;-72
2022/05/29 09:20:03;;;;;;;10.67;9.53;;;13.20;99.90;;;;;;5043396;28;20536;-72
2022/05/29 09:22:40;;;;;;;40.90;36.50;;;13.60;99.90;;;;;;5032279;28;20681;-71
2022/05/29 09:25:28;;;;;;;49.80;45.43;;;14.00;99.90;;;;;;5035677;28;20188;-72
2022/05/29 09:27:54;;;;;;;28.07;18.23;;;14.40;99.90;;;;;;5031728;28;20669;-70
2022/05/29 09:30:19;;;;;;;71.60;63.33;;;14.80;99.90;;;;;;5036608;28;20198;-71
2022/05/29 09:32:56;;;;;;;13.57;8.40;;;15.00;99.90;;;;;;5039315;28;20191;-72
2022/05/29 09:35:50;;;;;;;125.37;114.50;;;15.40;99.90;;;;;;5035128;28;20282;-72
2022/05/29 09:38:29;;;;;;;102.93;94.27;;;15.30;99.90;;;;;;5032300;28;20202;-72
2022/05/29 09:41:08;;;;;;;69.67;56.33;;;14.90;99.90;;;;;;5032235;28;20668;-70
2022/05/29 09:43:34;;;;;;;71.97;62.33;;;14.30;99.90;;;;;;5034278;28;20704;-70
2022/05/29 09:46:19;;;;;;;111.83;86.37;;;13.90;99.90;;;;;;5035163;28;20191;-72
2022/05/29 09:51:48;;;;;;;66.20;59.33;;;13.70;99.90;;;;;;5036166;28;20215;-69
2022/05/29 09:54:33;;;;;;;220.80;203.67;;;13.90;99.90;;;;;;5041771;28;20232;-70
2022/05/29 09:57:22;;;;;;;158.77;144.20;;;14.00;99.90;;;;;;5033592;28;20447;-68
2022/05/29 09:59:50;;;;;;;278.97;256.73;;;14.20;99.90;;;;;;5036872;28;20294;-68
2022/05/29 10:02:31;;;;;;;298.90;272.83;;;14.10;99.90;;;;;;5034454;28;20749;-70
2022/05/29 10:04:59;;;;;;;60.57;52.57;;;14.10;99.90;;;;;;5032172;28;20194;-69
2022/05/29 10:07:44;;;;;;;21.90;13.03;;;14.20;99.90;;;;;;5032265;28;20298;-71
2022/05/29 10:10:13;;;;;;;88.70;79.27;;;14.30;99.90;;;;;;5034026;28;20277;-71
2022/05/29 10:12:47;;;;;;;82.47;73.00;;;14.50;99.90;;;;;;5035291;28;20282;-71
2022/05/29 10:15:25;;;;;;;138.90;125.10;;;14.60;99.90;;;;;;5036559;28;20198;-77
2022/05/29 10:18:03;;;;;;;1.40;1.27;;;14.70;99.00;;;;;;5032725;28;20210;-71
2022/05/29 10:20:31;;;;;;;249.57;229.20;;;14.70;99.70;;;;;;5034412;28;20175;-71
2022/05/29 10:23:03;;;;;;;5.97;2.77;;;14.90;99.60;;;;;;5031258;28;20205;-71
2022/05/29 10:25:55;;;;;;;150.53;135.83;;;14.90;99.40;;;;;;5034585;28;20645;-74
2022/05/29 10:28:26;;;;;;;411.43;378.47;;;14.90;99.90;;;;;;5028717;28;20210;-73
2022/05/29 10:30:58;;;;;;;100.17;82.53;;;14.80;99.90;;;;;;5037373;28;20599;-73
2022/05/29 10:33:28;;;;;;;95.63;87.43;;;14.70;99.90;;;;;;5036070;28;20210;-72
2022/05/29 10:35:58;;;;;;;186.87;166.67;;;14.90;99.90;;;;;;5035409;28;20257;-71
2022/05/29 10:38:28;;;;;;;93.53;84.17;;;14.80;99.00;;;;;;5033513;28;20178;-73
2022/05/29 10:40:59;;;;;;;371.90;341.57;;;14.80;99.20;;;;;;5032364;28;20205;-70
2022/05/29 10:43:42;;;;;;;12.40;5.03;;;15.10;98.90;;;;;;5033099;28;20528;-75
2022/05/29 10:46:18;;;;;;;49.07;44.00;;;15.20;98.20;;;;;;5033406;28;20672;-71
2022/05/29 10:49:05;;;;;;;78.50;71.77;;;15.30;98.70;;;;;;5034406;28;20213;-78
2022/05/29 10:51:54;;;;;;;325.50;299.27;;;15.60;97.80;;;;;;5024629;28;20202;-79
2022/05/29 10:54:44;;;;;;;557.73;519.63;;;15.90;97.10;;;;;;5040076;28;20223;-69
2022/05/29 10:57:29;;;;;;;515.90;478.07;;;16.10;96.70;;;;;;5028143;28;20226;-70
2022/05/29 11:00:33;;;;;;;516.70;480.57;;;16.60;93.00;;;;;;5033338;28;20199;-69
2022/05/29 11:03:19;;;;;;;683.53;628.37;;;16.70;93.00;;;;;;5045025;28;20197;-76
2022/05/29 11:05:56;;;;;;;402.33;371.27;;;17.10;94.20;;;;;;5024686;28;20564;-69
2022/05/29 11:08:37;;;;;;;299.00;277.83;;;17.60;92.00;;;;;;5055025;28;20225;-68
2022/05/29 11:11:15;;;;;;;431.00;399.53;;;17.00;93.00;;;;;;5038677;28;20234;-68
2022/05/29 11:14:18;;;;;;;242.10;224.90;;;16.00;99.90;;;;;;5039723;28;20197;-68
2022/05/29 11:17:11;;;;;;;196.17;181.63;;;14.70;99.90;;;;;;5036899;28;20214;-69
2022/05/29 11:20:10;;;;;;;80.53;72.37;;;13.70;99.90;;;;;;5031828;28;20628;-68
2022/05/29 11:23:01;;;;;;;137.43;126.30;;;13.30;99.90;;;;;;5041846;28;20294;-69
2022/05/29 11:25:45;;;;;;;89.67;82.20;;;13.00;99.90;;;;;;5035470;28;20692;-69
2022/05/29 11:28:37;;;;;;;313.37;290.23;;;12.80;99.90;;;;;;5035025;28;20562;-71
2022/05/29 11:31:22;;;;;;;368.37;335.47;;;12.60;99.90;;;;;;5033877;28;20203;-70
2022/05/29 11:34:21;;;;;;;447.50;420.67;;;12.50;99.90;;;;;;5042402;28;20190;-71
2022/05/29 11:37:19;;;;;;;372.47;339.30;;;12.50;99.90;;;;;;5035006;28;20246;-71
2022/05/29 11:39:52;;;;;;;418.57;384.67;;;12.50;99.90;;;;;;5037075;28;20194;-72
2022/05/29 11:42:35;;;;;;;134.63;123.17;;;12.60;99.90;;;;;;5039933;28;20183;-71
2022/05/29 11:45:04;;;;;;;109.80;100.83;;;12.60;99.90;;;;;;5035300;28;21098;-72
2022/05/29 11:53:35;;;;;;;164.17;152.30;;;13.40;99.90;;;;;;5039041;28;20238;-70
2022/05/29 11:56:06;;;;;;;57.87;52.10;;;14.10;99.90;;;;;;5035689;28;20215;-68
2022/05/29 11:58:46;;;;;;;97.20;90.87;;;14.50;99.90;;;;;;5038077;28;20650;-68
2022/05/29 12:01:18;;;;;;;21.00;14.40;;;15.20;99.90;;;;;;5035195;28;20712;-69
2022/05/29 12:04:13;;;;;;;30.33;25.77;;;16.40;99.90;;;;;;5030541;28;20215;-69
2022/05/29 12:06:50;;;;;;;36.57;33.23;;;17.90;99.90;;;;;;5026221;28;20676;-69
2022/05/29 12:09:27;;;;;;;6.50;2.97;;;19.00;96.80;;;;;;5043604;28;20284;-72
2022/05/29 12:12:12;;;;;;;6.83;2.50;;;19.00;95.10;;;;;;5035030;28;20261;-72
2022/05/29 12:14:41;;;;;;;4.53;3.37;;;18.70;94.30;;;;;;5033676;28;20194;-73
2022/05/29 12:17:28;;;;;;;3.43;1.97;;;18.30;95.90;;;;;;5047318;28;20219;-72
2022/05/29 12:20:02;;;;;;;6.00;3.10;;;17.70;95.90;;;;;;5030937;28;20630;-73
2022/05/29 12:22:35;;;;;;;5.20;3.70;;;17.30;97.30;;;;;;5035551;28;20186;-73
2022/05/29 12:25:06;;;;;;;25.90;22.80;;;17.20;98.00;;;;;;5035190;28;20210;-73
2022/05/29 12:27:34;;;;;;;8.67;5.13;;;17.30;97.60;;;;;;5036775;28;20237;-71
2022/05/29 12:30:14;;;;;;;238.73;220.70;;;17.40;99.60;;;;;;5037941;28;20223;-72
2022/05/29 12:32:40;;;;;;;314.73;289.63;;;17.60;98.20;;;;;;5029554;28;20664;-72
2022/05/29 12:35:13;;;;;;;16.43;8.57;;;18.60;97.60;;;;;;5045524;28;20233;-72
2022/05/29 12:38:03;;;;;;;15.23;8.03;;;19.90;92.90;;;;;;5040963;28;20752;-73
2022/05/29 12:40:52;;;;;;;3.10;2.47;;;20.70;91.80;;;;;;5037620;28;20308;-73
2022/05/29 12:43:49;;;;;;;10.60;7.03;;;22.30;91.60;;;;;;5042782;28;20229;-72
2022/05/29 12:46:32;;;;;;;81.97;74.13;;;23.10;78.90;;;;;;5039054;28;20736;-74
2022/05/29 12:49:16;;;;;;;226.37;205.83;;;22.50;75.40;;;;;;5039231;28;20605;-72
2022/05/29 12:52:01;;;;;;;719.93;662.87;;;21.80;76.90;;;;;;5040759;28;20684;-75
2022/05/29 12:54:41;;;;;;;396.07;363.03;;;20.60;78.50;;;;;;5040837;28;20692;-73
2022/05/29 12:57:45;;;;;;;74.87;68.90;;;19.40;81.40;;;;;;5037709;28;20209;-74
2022/05/29 13:00:40;;;;;;;163.83;148.93;;;18.10;88.70;;;;;;5035357;28;20204;-71
2022/05/29 13:03:38;;;;;;;87.67;81.03;;;17.40;92.70;;;;;;5039466;28;20183;-71
2022/05/29 13:06:40;;;;;;;143.27;130.27;;;16.90;93.10;;;;;;5034491;28;20246;-71
2022/05/29 13:09:36;;;;;;;185.57;166.73;;;16.50;94.60;;;;;;5037090;28;20190;-70
2022/05/29 13:12:12;;;;;;;56.63;52.23;;;16.30;95.60;;;;;;5031903;28;20200;-70
2022/05/29 13:14:45;;;;;;;17.23;9.60;;;16.10;95.30;;;;;;5036419;28;20210;-70
2022/05/29 13:17:12;;;;;;;117.60;107.07;;;16.00;95.90;;;;;;5050708;28;20699;-69
2022/05/29 13:20:02;;;;;;;147.63;133.13;;;15.90;95.50;;;;;;5038059;28;20928;-69
2022/05/29 13:22:49;;;;;;;103.17;91.27;;;15.90;96.30;;;;;;5025561;28;20507;-69
2022/05/29 13:25:17;;;;;;;1.83;1.73;;;16.00;96.70;;;;;;5040307;28;20466;-71
2022/05/29 13:27:43;;;;;;;2.90;2.37;;;16.00;98.80;;;;;;5050282;28;20209;-71
2022/05/29 13:30:39;;;;;;;2.40;2.13;;;16.20;97.50;;;;;;5043388;28;20202;-77
2022/05/29 13:33:31;;;;;;;5.40;3.50;;;16.20;98.00;;;;;;5038898;28;20192;-71
2022/05/29 13:35:58;;;;;;;5.00;3.17;;;16.20;98.10;;;;;;5036642;28;20219;-71
2022/05/29 13:38:42;;;;;;;3.37;2.03;;;16.00;98.80;;;;;;5033406;28;20203;-71
2022/05/29 13:41:08;;;;;;;3.87;2.63;;;16.10;97.30;;;;;;5054587;28;20524;-70
2022/05/29 13:43:36;;;;;;;2.70;2.47;;;16.20;98.80;;;;;;5031615;28;20198;-71
2022/05/29 13:46:08;;;;;;;2.60;2.03;;;16.70;97.50;;;;;;5056227;28;20222;-70